createdAt,value
2022-08-03T00:00:53.227Z,99.90
2022-08-03T00:01:54.886Z,99.90
2022-08-03T00:02:56.847Z,99.90
2022-08-03T00:03:58.788Z,99.90
2022-08-03T00:05:00.513Z,99.90
2022-08-03T00:06:04.593Z,99.90
2022-08-03T00:07:06.763Z,99.90
2022-08-03T00:08:08.500Z,99.90
2022-08-03T00:09:11.150Z,99.90
2022-08-03T00:10:14.355Z,99.90
2022-08-03T00:11:16.517Z,99.90
2022-08-03T00:12:18.804Z,99.90
2022-08-03T00:13:21.128Z,99.90
2022-08-03T00:14:23.060Z,99.90
2022-08-03T00:15:25.292Z,99.90
2022-08-03T00:16:27.527Z,99.90
2022-08-03T00:17:29.368Z,99.90
2022-08-03T00:18:31.261Z,99.90
2022-08-03T00:19:33.106Z,99.90
2022-08-03T00:20:35.265Z,99.90
2022-08-03T00:21:37.493Z,99.90
2022-08-03T00:22:39.742Z,99.90
2022-08-03T00:23:51.506Z,99.90
2022-08-03T00:24:54.266Z,99.90
2022-08-03T00:25:56.900Z,99.90
2022-08-03T00:26:58.804Z,99.90
2022-08-03T00:28:00.636Z,99.90
2022-08-03T00:29:02.896Z,99.90
2022-08-03T00:30:05.270Z,99.90
2022-08-03T00:31:07.894Z,99.90
2022-08-03T00:32:15.449Z,99.90
2022-08-03T00:33:19.427Z,99.90
2022-08-03T00:34:36.453Z,99.90
2022-08-03T00:35:50.901Z,99.90
2022-08-03T00:36:52.933Z,99.90
2022-08-03T00:37:54.642Z,99.90
2022-08-03T00:38:56.831Z,99.90
2022-08-03T00:39:59.827Z,99.90
2022-08-03T00:41:02.055Z,99.90
2022-08-03T00:42:04.800Z,99.90
2022-08-03T00:43:07.807Z,99.90
2022-08-03T00:44:09.489Z,99.90
2022-08-03T00:45:11.415Z,99.90
2022-08-03T00:46:16.438Z,99.90
2022-08-03T00:47:22.572Z,99.90
2022-08-03T00:48:32.156Z,99.90
2022-08-03T00:49:39.822Z,99.90
2022-08-03T00:50:43.630Z,99.90
2022-08-03T00:51:45.622Z,99.90
2022-08-03T00:52:47.662Z,99.90
2022-08-03T00:53:50.123Z,99.90
2022-08-03T00:54:52.007Z,99.90
2022-08-03T00:55:54.118Z,99.90
2022-08-03T00:56:59.858Z,99.90
2022-08-03T00:58:06.817Z,99.90
2022-08-03T00:59:10.701Z,99.90
2022-08-03T01:00:20.606Z,99.90
2022-08-03T01:01:24.771Z,99.90
2022-08-03T01:12:00.534Z,99.90
2022-08-03T01:14:01.640Z,99.90
2022-08-03T01:15:19.661Z,99.90
2022-08-03T01:16:37.184Z,99.90
2022-08-03T01:17:50.194Z,99.90
2022-08-03T01:18:55.507Z,99.90
2022-08-03T01:20:05.156Z,99.90
2022-08-03T01:21:21.692Z,99.90
2022-08-03T01:22:52.137Z,99.90
2022-08-03T01:24:06.318Z,99.90
2022-08-03T01:25:36.477Z,99.90
2022-08-03T01:26:59.669Z,99.90
2022-08-03T01:28:26.541Z,99.90
2022-08-03T01:29:50.520Z,99.90
2022-08-03T01:30:56.135Z,99.90
2022-08-03T01:32:58.849Z,99.90
2022-08-03T01:33:52.867Z,99.90
2022-08-03T01:35:12.950Z,99.90
2022-08-03T01:36:18.500Z,99.90
2022-08-03T01:37:27.973Z,99.90
2022-08-03T01:38:33.917Z,99.90
2022-08-03T01:39:38.223Z,99.90
2022-08-03T01:40:42.772Z,99.90
2022-08-03T01:41:51.053Z,99.90
2022-08-03T01:42:55.979Z,99.90
2022-08-03T01:44:29.942Z,99.90
2022-08-03T01:45:22.831Z,99.90
2022-08-03T01:46:26.344Z,99.90
2022-08-03T01:47:29.823Z,99.90
2022-08-03T01:48:32.515Z,99.90
2022-08-03T01:49:38.662Z,99.90
2022-08-03T01:50:40.953Z,99.90
2022-08-03T01:52:04.157Z,99.90
2022-08-03T01:53:08.264Z,99.90
2022-08-03T01:54:13.645Z,99.90
2022-08-03T01:55:19.030Z,99.90
2022-08-03T01:56:24.257Z,99.90
2022-08-03T01:57:29.038Z,99.90
2022-08-03T01:58:33.968Z,99.90
2022-08-03T01:59:36.951Z,99.90
2022-08-03T02:00:39.688Z,99.90
2022-08-03T02:02:25.184Z,99.90
2022-08-03T02:03:08.821Z,99.90
2022-08-03T02:04:12.848Z,99.90
2022-08-03T02:05:15.589Z,99.90
2022-08-03T02:07:01.928Z,99.90
2022-08-03T02:07:43.828Z,99.90
2022-08-03T02:08:46.758Z,99.90
2022-08-03T02:09:52.083Z,99.90
2022-08-03T02:10:57.137Z,99.90
2022-08-03T02:12:00.878Z,99.90
2022-08-03T02:13:05.633Z,99.90
2022-08-03T02:14:09.313Z,99.90
2022-08-03T02:15:12.791Z,99.90
2022-08-03T02:16:19.182Z,99.90
2022-08-03T02:17:39.102Z,99.90
2022-08-03T02:18:43.418Z,99.90
2022-08-03T02:19:46.034Z,99.90
2022-08-03T02:20:48.954Z,99.90
2022-08-03T02:21:56.652Z,99.90
2022-08-03T02:23:03.430Z,99.90
2022-08-03T02:24:06.316Z,99.90
2022-08-03T02:25:13.446Z,99.90
2022-08-03T02:26:17.597Z,99.90
2022-08-03T02:27:24.400Z,99.90
2022-08-03T02:28:32.307Z,99.90
2022-08-03T02:29:38.803Z,99.90
2022-08-03T02:30:45.464Z,99.90
2022-08-03T02:31:49.297Z,99.90
2022-08-03T02:32:55.996Z,99.90
2022-08-03T02:34:03.084Z,99.90
2022-08-03T02:35:09.561Z,99.90
2022-08-03T02:36:13.828Z,99.90
2022-08-03T02:37:19.875Z,99.90
2022-08-03T02:38:26.143Z,99.90
2022-08-03T02:39:31.480Z,99.90
2022-08-03T02:40:34.303Z,99.90
2022-08-03T02:41:44.344Z,99.90
2022-08-03T02:42:49.822Z,99.90
2022-08-03T02:44:06.033Z,99.90
2022-08-03T02:45:14.999Z,99.90
2022-08-03T02:46:20.819Z,99.90
2022-08-03T02:47:27.860Z,99.90
2022-08-03T02:48:32.794Z,99.90
2022-08-03T02:49:49.759Z,99.90
2022-08-03T02:50:55.576Z,99.90
2022-08-03T02:51:59.893Z,99.90
2022-08-03T02:53:03.698Z,99.90
2022-08-03T02:54:06.888Z,99.90
2022-08-03T02:55:11.273Z,99.90
2022-08-03T02:56:14.120Z,99.90
2022-08-03T02:57:17.445Z,99.90
2022-08-03T02:58:24.186Z,99.90
2022-08-03T02:59:27.691Z,99.90
2022-08-03T03:00:31.753Z,99.90
2022-08-03T03:01:34.022Z,99.90
2022-08-03T03:02:36.990Z,99.90
2022-08-03T03:03:45.044Z,99.90
2022-08-03T03:05:51.764Z,99.90
2022-08-03T03:06:13.647Z,99.90
2022-08-03T03:07:17.801Z,99.90
2022-08-03T03:08:28.118Z,99.90
2022-08-03T03:09:40.198Z,99.90
2022-08-03T03:10:44.509Z,99.90
2022-08-03T03:11:46.593Z,99.90
2022-08-03T03:12:51.967Z,99.90
2022-08-03T03:13:55.988Z,99.90
2022-08-03T03:14:58.137Z,99.90
2022-08-03T03:16:05.002Z,99.90
2022-08-03T03:17:15.006Z,99.90
2022-08-03T03:18:22.258Z,99.90
2022-08-03T03:19:26.273Z,99.90
2022-08-03T03:20:30.610Z,99.90
2022-08-03T03:21:33.693Z,99.90
2022-08-03T03:22:36.221Z,99.90
2022-08-03T03:23:40.089Z,99.90
2022-08-03T03:24:44.258Z,99.90
2022-08-03T03:25:46.696Z,99.90
2022-08-03T03:26:48.961Z,99.90
2022-08-03T03:27:51.052Z,99.90
2022-08-03T03:28:53.506Z,99.90
2022-08-03T03:29:55.248Z,99.90
2022-08-03T03:30:57.023Z,99.90
2022-08-03T03:31:58.879Z,99.90
2022-08-03T03:33:04.452Z,99.90
2022-08-03T03:34:06.700Z,99.90
2022-08-03T03:35:10.018Z,99.90
2022-08-03T03:36:11.945Z,99.90
2022-08-03T03:37:13.676Z,99.90
2022-08-03T03:38:15.356Z,99.90
2022-08-03T03:39:17.065Z,99.90
2022-08-03T03:40:19.558Z,99.90
2022-08-03T03:41:21.748Z,99.90
2022-08-03T03:42:23.565Z,99.90
2022-08-03T03:43:25.521Z,99.90
2022-08-03T03:44:29.321Z,99.90
2022-08-03T03:45:31.697Z,99.90
2022-08-03T03:46:33.388Z,99.90
2022-08-03T03:47:36.068Z,99.90
2022-08-03T03:48:38.962Z,99.90
2022-08-03T03:49:42.998Z,99.90
2022-08-03T03:50:45.554Z,99.90
2022-08-03T03:51:47.529Z,99.90
2022-08-03T03:52:49.660Z,99.90
2022-08-03T03:54:02.881Z,99.90
2022-08-03T03:55:05.076Z,99.90
2022-08-03T03:56:06.851Z,99.90
2022-08-03T03:57:13.111Z,99.90
2022-08-03T03:58:15.586Z,99.90
2022-08-03T03:59:17.340Z,99.90
2022-08-03T04:00:19.855Z,99.90
2022-08-03T04:01:22.181Z,99.90
2022-08-03T04:02:23.941Z,99.90
2022-08-03T04:03:25.650Z,99.90
2022-08-03T04:04:45.892Z,99.90
2022-08-03T04:06:06.882Z,99.90
2022-08-03T04:07:38.305Z,99.90
2022-08-03T04:08:59.783Z,99.90
2022-08-03T04:10:21.185Z,99.90
2022-08-03T04:11:34.718Z,99.90
2022-08-03T04:12:37.739Z,99.90
2022-08-03T04:14:08.398Z,99.90
2022-08-03T04:15:12.497Z,99.90
2022-08-03T04:16:18.023Z,99.90
2022-08-03T04:17:20.593Z,99.90
2022-08-03T04:18:24.839Z,99.90
2022-08-03T04:19:47.144Z,99.90
2022-08-03T04:20:50.490Z,99.90
2022-08-03T04:21:57.139Z,99.90
2022-08-03T04:23:00.348Z,99.90
2022-08-03T04:24:04.856Z,99.90
2022-08-03T04:25:10.518Z,99.90
2022-08-03T04:26:15.185Z,99.90
2022-08-03T04:27:21.046Z,99.90
2022-08-03T04:28:30.617Z,99.90
2022-08-03T04:29:36.100Z,99.90
2022-08-03T04:30:47.580Z,99.90
2022-08-03T04:31:50.914Z,99.90
2022-08-03T04:32:54.443Z,99.90
2022-08-03T04:33:57.871Z,99.90
2022-08-03T04:34:59.951Z,99.90
2022-08-03T04:36:04.470Z,99.90
2022-08-03T04:37:33.695Z,99.90
2022-08-03T04:38:52.612Z,99.90
2022-08-03T04:39:57.987Z,99.90
2022-08-03T04:41:01.157Z,99.90
2022-08-03T04:42:16.995Z,99.90
2022-08-03T04:43:21.269Z,99.90
2022-08-03T04:44:28.313Z,99.90
2022-08-03T04:45:32.944Z,99.90
2022-08-03T04:46:39.927Z,99.90
2022-08-03T04:47:49.587Z,99.90
2022-08-03T04:48:51.820Z,99.90
2022-08-03T04:49:54.132Z,99.90
2022-08-03T04:50:56.522Z,99.90
2022-08-03T04:51:58.728Z,99.90
2022-08-03T04:53:00.501Z,99.90
2022-08-03T04:54:02.604Z,99.90
2022-08-03T04:55:05.084Z,99.90
2022-08-03T04:56:07.340Z,99.90
2022-08-03T04:57:10.283Z,99.90
2022-08-03T04:58:24.337Z,99.90
2022-08-03T04:59:26.030Z,99.90
2022-08-03T05:00:28.339Z,99.90
2022-08-03T05:01:30.087Z,99.90
2022-08-03T05:02:32.400Z,99.90
2022-08-03T05:03:34.359Z,99.90
2022-08-03T05:04:36.134Z,99.90
2022-08-03T05:05:50.657Z,99.90
2022-08-03T05:06:54.920Z,99.90
2022-08-03T05:07:57.547Z,99.90
2022-08-03T05:09:02.980Z,99.90
2022-08-03T05:10:10.155Z,99.90
2022-08-03T05:11:17.961Z,99.90
2022-08-03T05:12:19.620Z,99.90
2022-08-03T05:13:21.329Z,99.90
2022-08-03T05:14:28.296Z,99.90
2022-08-03T05:15:30.574Z,99.90
2022-08-03T05:16:32.971Z,99.90
2022-08-03T05:17:34.807Z,99.90
2022-08-03T05:18:36.535Z,99.90
2022-08-03T05:19:38.256Z,99.90
2022-08-03T05:20:39.920Z,99.90
2022-08-03T05:21:51.879Z,99.90
2022-08-03T05:22:55.026Z,99.90
2022-08-03T05:23:57.251Z,99.90
2022-08-03T05:24:59.068Z,99.90
2022-08-03T05:26:00.805Z,99.90
2022-08-03T05:27:02.474Z,99.90
2022-08-03T05:28:04.760Z,99.90
2022-08-03T05:29:09.529Z,99.90
2022-08-03T05:30:31.685Z,99.90
2022-08-03T05:31:33.592Z,99.90
2022-08-03T05:32:35.282Z,99.90
2022-08-03T05:33:37.050Z,99.90
2022-08-03T05:34:38.841Z,99.90
2022-08-03T05:36:01.745Z,99.90
2022-08-03T05:37:04.164Z,99.90
2022-08-03T05:38:06.367Z,99.90
2022-08-03T05:39:10.994Z,99.90
2022-08-03T05:40:13.227Z,99.90
2022-08-03T05:41:22.906Z,99.90
2022-08-03T05:42:25.929Z,99.90
2022-08-03T05:43:28.170Z,99.90
2022-08-03T05:44:31.320Z,99.90
2022-08-03T05:45:33.278Z,99.90
2022-08-03T05:46:34.935Z,99.90
2022-08-03T05:47:36.577Z,99.90
2022-08-03T05:48:38.430Z,99.90
2022-08-03T05:49:40.199Z,99.90
2022-08-03T05:50:42.969Z,99.90
2022-08-03T05:51:44.983Z,99.90
2022-08-03T05:52:46.697Z,99.90
2022-08-03T05:53:48.898Z,99.90
2022-08-03T05:54:56.247Z,99.90
2022-08-03T05:56:02.519Z,99.90
2022-08-03T05:57:16.424Z,99.90
2022-08-03T05:58:18.125Z,99.90
2022-08-03T05:59:37.600Z,99.90
2022-08-03T06:00:39.682Z,99.90
2022-08-03T06:01:41.530Z,99.90
2022-08-03T06:02:43.947Z,99.90
2022-08-03T06:03:46.393Z,99.90
2022-08-03T06:04:48.683Z,99.90
2022-08-03T06:05:55.579Z,99.90
2022-08-03T06:07:02.156Z,99.90
2022-08-03T06:08:04.420Z,99.90
2022-08-03T06:09:06.130Z,99.90
2022-08-03T06:10:35.941Z,99.90
2022-08-03T06:11:31.565Z,99.90
2022-08-03T06:12:36.200Z,99.90
2022-08-03T06:13:38.778Z,99.90
2022-08-03T06:14:40.548Z,99.90
2022-08-03T06:15:42.576Z,99.90
2022-08-03T06:16:44.248Z,99.90
2022-08-03T06:17:47.790Z,99.90
2022-08-03T06:18:49.517Z,99.90
2022-08-03T06:19:53.958Z,99.90
2022-08-03T06:20:55.695Z,99.90
2022-08-03T06:21:57.556Z,99.90
2022-08-03T06:23:01.408Z,99.90
2022-08-03T06:24:03.225Z,99.90
2022-08-03T06:25:12.708Z,99.90
2022-08-03T06:26:14.797Z,99.90
2022-08-03T06:27:16.961Z,99.90
2022-08-03T06:28:51.825Z,99.90
2022-08-03T06:29:40.436Z,99.90
2022-08-03T06:30:42.180Z,99.90
2022-08-03T06:31:43.824Z,99.90
2022-08-03T06:32:51.953Z,99.90
2022-08-03T06:34:31.244Z,99.90
2022-08-03T06:35:16.466Z,99.90
2022-08-03T06:36:18.625Z,99.90
2022-08-03T06:37:20.424Z,99.90
2022-08-03T06:38:22.035Z,99.90
2022-08-03T06:39:24.324Z,99.90
2022-08-03T06:40:33.133Z,99.90
2022-08-03T06:41:38.104Z,99.90
2022-08-03T06:42:46.540Z,99.90
2022-08-03T06:44:03.628Z,99.90
2022-08-03T06:45:08.892Z,99.90
2022-08-03T06:46:11.181Z,99.90
2022-08-03T06:47:12.934Z,99.90
2022-08-03T06:48:14.748Z,99.90
2022-08-03T06:49:16.718Z,99.90
2022-08-03T06:50:22.922Z,99.90
2022-08-03T06:52:05.655Z,99.90
2022-08-03T06:52:48.911Z,99.90
2022-08-03T06:53:50.573Z,99.90
2022-08-03T06:54:52.200Z,99.90
2022-08-03T06:55:54.973Z,99.90
2022-08-03T06:56:57.064Z,99.90
2022-08-03T06:57:59.959Z,99.90
2022-08-03T06:59:05.231Z,99.90
2022-08-03T07:00:12.411Z,99.90
2022-08-03T07:01:14.462Z,99.90
2022-08-03T07:02:20.843Z,99.90
2022-08-03T07:03:22.621Z,99.90
2022-08-03T07:04:24.585Z,99.90
2022-08-03T07:05:26.415Z,99.90
2022-08-03T07:06:28.400Z,99.90
2022-08-03T07:07:30.242Z,99.90
2022-08-03T07:08:34.313Z,99.90
2022-08-03T07:09:36.429Z,99.90
2022-08-03T07:10:38.272Z,99.90
2022-08-03T07:11:39.981Z,99.90
2022-08-03T07:12:52.755Z,99.90
2022-08-03T07:13:58.796Z,99.90
2022-08-03T07:15:03.357Z,99.90
2022-08-03T07:16:06.795Z,99.90
2022-08-03T07:17:11.448Z,99.90
2022-08-03T07:18:13.497Z,99.90
2022-08-03T07:19:15.324Z,99.90
2022-08-03T07:20:18.336Z,99.90
2022-08-03T07:21:19.906Z,99.90
2022-08-03T07:22:21.689Z,99.90
2022-08-03T07:23:23.899Z,99.90
2022-08-03T07:24:25.674Z,99.90
2022-08-03T07:25:28.986Z,99.90
2022-08-03T07:26:30.948Z,99.90
2022-08-03T07:27:33.851Z,99.90
2022-08-03T07:28:35.819Z,99.90
2022-08-03T07:29:37.933Z,99.90
2022-08-03T07:30:39.649Z,99.90
2022-08-03T07:31:42.275Z,99.90
2022-08-03T07:32:50.507Z,99.90
2022-08-03T07:33:52.612Z,99.90
2022-08-03T07:34:59.914Z,99.90
2022-08-03T07:36:03.520Z,99.90
2022-08-03T07:37:05.653Z,99.90
2022-08-03T07:38:07.676Z,99.90
2022-08-03T07:39:17.788Z,99.90
2022-08-03T07:40:20.339Z,99.90
2022-08-03T07:41:22.340Z,99.90
2022-08-03T07:42:24.056Z,99.90
2022-08-03T07:43:25.916Z,99.90
2022-08-03T07:44:27.478Z,99.90
2022-08-03T07:45:30.718Z,99.90
2022-08-03T07:46:32.956Z,99.90
2022-08-03T07:47:36.091Z,99.90
2022-08-03T07:48:37.804Z,99.90
2022-08-03T07:49:41.194Z,99.90
2022-08-03T07:50:43.256Z,99.90
2022-08-03T07:51:45.399Z,99.90
2022-08-03T07:52:50.589Z,99.90
2022-08-03T07:53:52.998Z,99.90
2022-08-03T07:54:54.725Z,99.90
2022-08-03T07:55:57.137Z,99.90
2022-08-03T07:56:58.802Z,99.90
2022-08-03T07:58:20.623Z,99.90
2022-08-03T07:59:25.906Z,99.90
2022-08-03T08:00:27.976Z,99.90
2022-08-03T08:01:30.101Z,99.90
2022-08-03T08:02:32.399Z,99.90
2022-08-03T08:03:52.312Z,99.90
2022-08-03T08:04:55.749Z,99.90
2022-08-03T08:05:57.852Z,99.90
2022-08-03T08:06:59.427Z,99.90
2022-08-03T08:08:01.888Z,99.90
2022-08-03T08:09:03.645Z,99.90
2022-08-03T08:10:12.861Z,99.90
2022-08-03T08:11:15.273Z,99.90
2022-08-03T08:12:17.257Z,99.90
2022-08-03T08:13:19.563Z,99.90
2022-08-03T08:14:21.175Z,99.90
2022-08-03T08:15:23.361Z,99.90
2022-08-03T08:16:25.229Z,99.90
2022-08-03T08:17:27.097Z,99.90
2022-08-03T08:18:31.908Z,99.90
2022-08-03T08:19:33.470Z,99.90
2022-08-03T08:20:40.056Z,99.90
2022-08-03T08:21:53.000Z,99.90
2022-08-03T08:23:17.289Z,99.90
2022-08-03T08:24:30.452Z,99.90
2022-08-03T08:25:33.906Z,99.90
2022-08-03T08:26:36.870Z,99.90
2022-08-03T08:28:22.203Z,99.90
2022-08-03T08:29:08.244Z,99.90
2022-08-03T08:30:13.042Z,99.90
2022-08-03T08:31:16.582Z,99.90
2022-08-03T08:32:18.658Z,99.90
2022-08-03T08:33:23.093Z,99.90
2022-08-03T08:34:25.548Z,99.90
2022-08-03T08:35:27.246Z,99.90
2022-08-03T08:36:28.856Z,99.90
2022-08-03T08:37:30.409Z,99.90
2022-08-03T08:38:32.134Z,99.90
2022-08-03T08:39:33.681Z,99.90
2022-08-03T08:40:35.374Z,99.90
2022-08-03T08:41:36.969Z,99.90
2022-08-03T08:42:40.344Z,99.90
2022-08-03T08:43:46.711Z,99.90
2022-08-03T08:44:48.542Z,99.90
2022-08-03T08:45:50.968Z,99.90
2022-08-03T08:46:55.168Z,99.90
2022-08-03T08:48:01.874Z,99.90
2022-08-03T08:49:07.667Z,99.90
2022-08-03T08:50:16.530Z,99.90
2022-08-03T08:51:54.465Z,99.90
2022-08-03T08:52:54.628Z,99.90
2022-08-03T08:53:57.996Z,99.90
2022-08-03T08:55:02.199Z,99.90
2022-08-03T08:56:05.056Z,99.90
2022-08-03T08:57:26.790Z,99.90
2022-08-03T08:58:41.539Z,99.90
2022-08-03T08:59:47.968Z,99.90
2022-08-03T09:00:51.290Z,99.90
2022-08-03T09:01:57.903Z,99.90
2022-08-03T09:03:01.224Z,99.90
2022-08-03T09:04:07.718Z,99.90
2022-08-03T09:05:18.471Z,99.90
2022-08-03T09:06:21.557Z,99.90
2022-08-03T09:07:23.515Z,99.90
2022-08-03T09:08:25.268Z,99.90
2022-08-03T09:09:28.476Z,99.90
2022-08-03T09:10:49.252Z,99.90
2022-08-03T09:11:52.481Z,99.90
2022-08-03T09:13:02.743Z,99.90
2022-08-03T09:14:05.405Z,99.90
2022-08-03T09:15:20.582Z,99.90
2022-08-03T09:16:22.963Z,99.90
2022-08-03T09:17:24.911Z,99.90
2022-08-03T09:18:33.443Z,99.80
2022-08-03T09:19:35.894Z,99.90
2022-08-03T09:20:38.016Z,99.90
2022-08-03T09:21:39.865Z,99.20
2022-08-03T09:23:00.344Z,98.70
2022-08-03T09:24:06.287Z,99.70
2022-08-03T09:25:24.472Z,99.50
2022-08-03T09:26:29.248Z,99.10
2022-08-03T09:27:43.647Z,98.90
2022-08-03T09:29:00.407Z,99.30
2022-08-03T09:30:32.507Z,99.10
2022-08-03T09:31:36.670Z,98.60
2022-08-03T09:32:38.630Z,98.00
2022-08-03T09:33:49.509Z,98.60
2022-08-03T09:34:57.826Z,98.40
2022-08-03T09:36:00.034Z,98.20
2022-08-03T09:37:01.703Z,98.30
2022-08-03T09:38:13.651Z,97.60
2022-08-03T09:39:19.522Z,97.10
2022-08-03T09:40:42.338Z,97.70
2022-08-03T09:41:47.063Z,97.30
2022-08-03T09:42:57.717Z,97.60
2022-08-03T09:43:59.619Z,97.30
2022-08-03T09:45:01.730Z,97.30
2022-08-03T09:46:05.156Z,97.70
2022-08-03T09:47:06.845Z,97.00
2022-08-03T09:48:29.434Z,96.10
2022-08-03T09:49:31.593Z,96.00
2022-08-03T09:50:57.014Z,95.50
2022-08-03T09:52:32.530Z,96.00
2022-08-03T09:53:57.265Z,96.40
2022-08-03T09:55:03.226Z,95.70
2022-08-03T09:56:34.096Z,95.50
2022-08-03T09:57:27.927Z,95.50
2022-08-03T09:58:31.430Z,94.70
2022-08-03T09:59:34.668Z,95.00
2022-08-03T10:01:04.154Z,95.50
2022-08-03T10:02:24.930Z,96.00
2022-08-03T10:03:29.680Z,95.70
2022-08-03T10:04:31.578Z,95.10
2022-08-03T10:05:33.666Z,95.10
2022-08-03T10:06:35.404Z,94.90
2022-08-03T10:07:50.444Z,94.70
2022-08-03T10:09:11.855Z,94.60
2022-08-03T10:10:31.019Z,95.10
2022-08-03T10:11:41.330Z,95.10
2022-08-03T10:12:44.770Z,94.90
2022-08-03T10:13:47.748Z,95.20
2022-08-03T10:14:50.029Z,95.30
2022-08-03T10:16:22.646Z,95.40
2022-08-03T10:17:13.682Z,94.80
2022-08-03T10:18:15.464Z,95.00
2022-08-03T10:19:17.872Z,94.40
2022-08-03T10:20:19.499Z,94.60
2022-08-03T10:21:22.140Z,94.60
2022-08-03T10:22:28.376Z,94.50
2022-08-03T10:23:35.359Z,94.60
2022-08-03T10:24:39.650Z,95.30
2022-08-03T10:25:43.850Z,95.10
2022-08-03T10:26:49.919Z,94.90
2022-08-03T10:27:53.285Z,94.50
2022-08-03T10:28:59.692Z,94.40
2022-08-03T10:30:06.690Z,93.70
2022-08-03T10:31:10.242Z,94.00
2022-08-03T10:32:21.703Z,93.90
2022-08-03T10:33:50.668Z,93.70
2022-08-03T10:35:00.178Z,93.50
2022-08-03T10:36:03.165Z,93.90
2022-08-03T10:37:10.485Z,93.80
2022-08-03T10:38:19.413Z,94.20
2022-08-03T10:39:23.187Z,94.20
2022-08-03T10:41:51.471Z,93.40
2022-08-03T10:42:59.366Z,93.50
2022-08-03T10:44:10.457Z,93.10
2022-08-03T10:45:25.736Z,93.40
2022-08-03T10:46:28.673Z,93.20
2022-08-03T10:47:31.962Z,92.90
2022-08-03T10:48:35.697Z,93.20
2022-08-03T10:49:38.327Z,93.30
2022-08-03T10:50:43.356Z,92.60
2022-08-03T10:51:46.662Z,92.40
2022-08-03T10:52:58.202Z,92.40
2022-08-03T10:54:03.746Z,92.80
2022-08-03T10:55:50.546Z,92.90
2022-08-03T10:57:14.287Z,92.40
2022-08-03T10:58:36.318Z,92.60
2022-08-03T10:59:46.862Z,92.80
2022-08-03T11:00:53.568Z,92.10
2022-08-03T11:02:00.876Z,92.00
2022-08-03T11:03:06.292Z,91.50
2022-08-03T11:04:11.880Z,92.00
2022-08-03T11:05:29.839Z,91.80
2022-08-03T11:06:37.260Z,91.50
2022-08-03T11:07:39.392Z,91.80
2022-08-03T11:08:41.494Z,91.50
2022-08-03T11:09:53.848Z,91.90
2022-08-03T11:10:58.562Z,92.10
2022-08-03T11:12:32.182Z,91.80
2022-08-03T11:13:34.272Z,91.90
2022-08-03T11:14:47.556Z,91.90
2022-08-03T11:15:52.307Z,91.60
2022-08-03T11:17:15.192Z,91.00
2022-08-03T11:18:16.949Z,90.90
2022-08-03T11:19:28.197Z,91.10
2022-08-03T11:20:49.128Z,91.20
2022-08-03T11:21:54.083Z,91.40
2022-08-03T11:22:58.378Z,89.50
2022-08-03T11:24:04.129Z,90.20
2022-08-03T11:25:08.328Z,89.20
2022-08-03T11:26:30.083Z,90.30
2022-08-03T11:27:33.501Z,89.40
2022-08-03T11:28:35.215Z,88.50
2022-08-03T11:29:36.813Z,88.80
2022-08-03T11:30:38.585Z,88.70
2022-08-03T11:31:51.681Z,89.30
2022-08-03T11:32:56.867Z,89.10
2022-08-03T11:34:13.186Z,89.50
2022-08-03T11:35:33.883Z,90.40
2022-08-03T11:37:13.026Z,89.60
2022-08-03T11:38:14.770Z,90.00
2022-08-03T11:39:17.250Z,87.70
2022-08-03T11:40:40.800Z,85.60
2022-08-03T11:41:45.171Z,85.60
2022-08-03T11:42:48.146Z,86.10
2022-08-03T11:43:50.129Z,85.70
2022-08-03T11:44:55.329Z,85.40
2022-08-03T11:46:07.719Z,84.50
2022-08-03T11:47:18.095Z,85.60
2022-08-03T11:48:21.390Z,85.20
2022-08-03T11:49:24.442Z,85.50
2022-08-03T11:50:26.223Z,85.50
2022-08-03T11:51:31.916Z,85.60
2022-08-03T11:52:39.108Z,85.90
2022-08-03T11:53:42.212Z,85.10
2022-08-03T11:54:44.545Z,86.20
2022-08-03T11:55:50.370Z,87.10
2022-08-03T11:56:52.252Z,86.50
2022-08-03T11:59:15.187Z,85.80
2022-08-03T11:59:35.538Z,85.10
2022-08-03T12:00:38.808Z,86.00
2022-08-03T12:01:41.821Z,85.50
2022-08-03T12:02:58.921Z,84.50
2022-08-03T12:04:05.517Z,84.60
2022-08-03T12:05:08.024Z,84.10
2022-08-03T12:06:16.169Z,84.30
2022-08-03T12:07:25.070Z,84.60
2022-08-03T12:08:44.607Z,83.60
2022-08-03T12:10:15.220Z,84.00
2022-08-03T12:11:18.270Z,85.50
2022-08-03T12:12:20.989Z,83.20
2022-08-03T12:14:37.373Z,82.70
2022-08-03T12:15:00.000Z,82.80
2022-08-03T12:16:02.895Z,82.60
2022-08-03T12:17:05.563Z,83.40
2022-08-03T12:18:18.313Z,84.10
2022-08-03T12:19:21.543Z,83.60
2022-08-03T12:20:35.031Z,82.40
2022-08-03T12:21:57.395Z,82.20
2022-08-03T12:23:06.848Z,82.40
2022-08-03T12:24:09.591Z,81.40
2022-08-03T12:25:26.993Z,81.60
2022-08-03T12:26:58.289Z,82.40
2022-08-03T12:28:37.322Z,85.30
2022-08-03T12:29:40.227Z,80.10
2022-08-03T12:30:43.685Z,81.00
2022-08-03T12:31:45.674Z,81.90
2022-08-03T12:32:47.279Z,81.60
2022-08-03T12:34:06.647Z,81.60
2022-08-03T12:35:08.750Z,81.80
2022-08-03T12:36:11.412Z,80.30
2022-08-03T12:37:21.847Z,80.00
2022-08-03T12:38:24.555Z,80.20
2022-08-03T12:39:30.872Z,80.50
2022-08-03T12:40:33.092Z,80.20
2022-08-03T12:41:38.275Z,78.50
2022-08-03T12:42:40.926Z,79.00
2022-08-03T12:43:49.959Z,78.80
2022-08-03T12:44:56.315Z,80.60
2022-08-03T12:46:13.112Z,80.10
2022-08-03T12:47:16.263Z,79.60
2022-08-03T12:48:18.029Z,79.70
2022-08-03T12:49:19.980Z,80.00
2022-08-03T12:50:35.133Z,80.40
2022-08-03T12:51:59.459Z,80.40
2022-08-03T12:53:08.890Z,78.50
2022-08-03T12:54:24.658Z,78.20
2022-08-03T12:55:57.722Z,79.10
2022-08-03T12:57:03.950Z,78.80
2022-08-03T12:58:08.177Z,78.90
2022-08-03T12:59:53.551Z,79.90
2022-08-03T13:00:56.171Z,78.90
2022-08-03T13:01:59.292Z,78.50
2022-08-03T13:04:35.186Z,78.60
2022-08-03T13:05:46.100Z,78.80
2022-08-03T13:07:02.680Z,79.00
2022-08-03T13:08:05.063Z,78.00
2022-08-03T13:09:07.956Z,78.80
2022-08-03T13:10:10.654Z,78.10
2022-08-03T13:11:55.680Z,78.70
2022-08-03T13:12:50.193Z,78.40
2022-08-03T13:13:53.743Z,78.30
2022-08-03T13:14:57.025Z,77.90
2022-08-03T13:15:59.404Z,76.50
2022-08-03T13:17:01.147Z,76.80
2022-08-03T13:18:02.841Z,78.80
2022-08-03T13:19:04.563Z,77.10
2022-08-03T13:20:07.102Z,77.50
2022-08-03T13:21:09.327Z,78.70
2022-08-03T13:22:25.461Z,78.10
2022-08-03T13:23:27.177Z,76.50
2022-08-03T13:24:29.552Z,77.50
2022-08-03T13:25:32.274Z,76.50
2022-08-03T13:26:33.921Z,76.10
2022-08-03T13:28:04.197Z,75.20
2022-08-03T13:28:57.619Z,75.70
2022-08-03T13:29:59.734Z,75.50
2022-08-03T13:31:01.534Z,75.80
2022-08-03T13:32:04.115Z,75.80
2022-08-03T13:33:05.878Z,75.60
2022-08-03T13:34:07.474Z,74.50
2022-08-03T13:35:10.141Z,75.60
2022-08-03T13:36:11.739Z,75.00
2022-08-03T13:37:14.542Z,73.70
2022-08-03T13:38:17.279Z,73.60
2022-08-03T13:39:20.070Z,73.50
2022-08-03T13:40:23.685Z,73.30
2022-08-03T13:41:31.886Z,72.50
2022-08-03T13:42:36.203Z,73.10
2022-08-03T13:43:37.798Z,72.90
2022-08-03T13:44:39.559Z,73.00
2022-08-03T13:45:44.495Z,71.20
2022-08-03T13:46:49.979Z,71.20
2022-08-03T13:47:52.300Z,71.30
2022-08-03T13:48:54.436Z,71.50
2022-08-03T13:50:01.664Z,71.90
2022-08-03T13:51:22.028Z,71.00
2022-08-03T13:52:24.974Z,70.30
2022-08-03T13:53:26.578Z,70.60
2022-08-03T13:54:28.298Z,69.40
2022-08-03T13:55:29.948Z,68.50
2022-08-03T13:56:32.444Z,68.20
2022-08-03T13:58:06.025Z,68.00
2022-08-03T13:58:57.731Z,68.60
2022-08-03T13:59:59.767Z,67.30
2022-08-03T14:01:01.529Z,68.50
2022-08-03T14:02:03.995Z,68.90
2022-08-03T14:03:13.430Z,69.10
2022-08-03T14:04:21.956Z,68.10
2022-08-03T14:05:24.442Z,70.00
2022-08-03T14:06:26.262Z,67.40
2022-08-03T14:07:28.173Z,68.40
2022-08-03T14:08:29.839Z,66.40
2022-08-03T14:09:31.814Z,64.70
2022-08-03T14:10:38.608Z,63.20
2022-08-03T14:12:07.226Z,63.30
2022-08-03T14:13:04.007Z,66.20
2022-08-03T14:14:05.712Z,61.80
2022-08-03T14:15:10.098Z,59.20
2022-08-03T14:16:11.902Z,59.60
2022-08-03T14:17:18.870Z,58.40
2022-08-03T14:18:28.639Z,58.20
2022-08-03T14:19:40.569Z,57.50
2022-08-03T14:20:56.781Z,56.40
2022-08-03T14:22:03.662Z,56.40
2022-08-03T14:23:08.845Z,56.30
2022-08-03T14:24:10.456Z,55.80
2022-08-03T14:25:12.018Z,56.20
2022-08-03T14:26:15.436Z,56.40
2022-08-03T14:27:17.529Z,56.60
2022-08-03T14:28:23.587Z,56.50
2022-08-03T14:29:25.689Z,56.50
2022-08-03T14:30:27.417Z,56.00
2022-08-03T14:32:09.847Z,55.90